createdAt,value
2023-02-19T00:00:17.822Z,617.41
2023-02-19T00:01:17.779Z,613.99
2023-02-19T00:02:17.798Z,617.41
2023-02-19T00:03:17.819Z,614.56
2023-02-19T00:04:17.766Z,627.32
2023-02-19T00:05:17.758Z,619.72
2023-02-19T00:06:17.718Z,617.99
2023-02-19T00:07:17.726Z,611.16
2023-02-19T00:08:17.712Z,617.99
2023-02-19T00:09:17.689Z,612.29
2023-02-19T00:10:17.666Z,610.04
2023-02-19T00:11:17.674Z,613.42
2023-02-19T00:12:17.640Z,606.70
2023-02-19T00:13:17.645Z,597.42
2023-02-19T00:14:17.636Z,592.10
2023-02-19T00:15:17.616Z,592.10
2023-02-19T00:16:17.612Z,597.96
2023-02-19T00:17:17.585Z,602.84
2023-02-19T00:18:17.593Z,601.21
2023-02-19T00:19:17.551Z,602.30
2023-02-19T00:20:17.548Z,597.96
2023-02-19T00:21:17.548Z,592.63
2023-02-19T00:22:17.516Z,587.39
2023-02-19T00:23:17.522Z,595.28
2023-02-19T00:24:17.494Z,596.89
2023-02-19T00:25:17.478Z,594.75
2023-02-19T00:26:18.910Z,588.43
2023-02-19T00:27:17.458Z,593.16
2023-02-19T00:28:17.462Z,596.35
2023-02-19T00:29:17.498Z,605.04
2023-02-19T00:30:17.462Z,611.73
2023-02-19T00:31:17.485Z,599.04
2023-02-19T00:32:17.426Z,597.42
2023-02-19T00:33:17.409Z,593.69
2023-02-19T00:34:17.375Z,599.04
2023-02-19T00:35:17.361Z,602.84
2023-02-19T00:36:17.349Z,602.84
2023-02-19T00:37:17.367Z,612.29
2023-02-19T00:38:17.414Z,610.04
2023-02-19T00:39:17.319Z,606.70
2023-02-19T00:40:17.298Z,595.82
2023-02-19T00:41:17.289Z,597.96
2023-02-19T00:42:17.271Z,601.75
2023-02-19T00:43:17.295Z,597.96
2023-02-19T00:44:17.251Z,596.35
2023-02-19T00:45:17.247Z,593.69
2023-02-19T00:46:17.288Z,599.04
2023-02-19T00:47:17.236Z,600.12
2023-02-19T00:48:17.262Z,603.39
2023-02-19T00:49:17.205Z,603.39
2023-02-19T00:50:17.175Z,594.75
2023-02-19T00:51:17.166Z,599.04
2023-02-19T00:52:17.170Z,606.15
2023-02-19T00:53:17.179Z,611.16
2023-02-19T00:54:17.151Z,597.42
2023-02-19T00:55:17.154Z,597.96
2023-02-19T00:56:17.209Z,601.21
2023-02-19T00:57:17.113Z,595.82
2023-02-19T00:58:17.086Z,603.39
2023-02-19T00:59:17.106Z,599.04
2023-02-19T01:00:17.080Z,607.81
2023-02-19T01:01:17.089Z,608.92
2023-02-19T01:02:17.034Z,605.59
2023-02-19T01:03:17.030Z,603.94
2023-02-19T01:04:17.019Z,597.42
2023-02-19T01:05:16.989Z,590.52
2023-02-19T01:06:16.978Z,594.75
2023-02-19T01:07:16.997Z,591.04
2023-02-19T01:08:16.961Z,584.80
2023-02-19T01:09:16.973Z,579.19
2023-02-19T01:10:16.948Z,559.21
2023-02-19T01:11:16.917Z,568.78
2023-02-19T01:12:16.892Z,573.20
2023-02-19T01:13:16.902Z,575.68
2023-02-19T01:14:16.874Z,571.22
2023-02-19T01:15:16.888Z,571.22
2023-02-19T01:16:16.923Z,575.18
2023-02-19T01:17:16.893Z,575.18
2023-02-19T01:18:16.908Z,576.18
2023-02-19T01:19:16.817Z,576.18
2023-02-19T01:20:16.808Z,576.18
2023-02-19T01:21:16.845Z,574.68
2023-02-19T01:22:16.777Z,573.20
2023-02-19T01:23:16.782Z,566.36
2023-02-19T01:24:16.797Z,573.20
2023-02-19T01:25:16.820Z,565.87
2023-02-19T01:26:16.721Z,571.72
2023-02-19T01:27:16.755Z,571.72
2023-02-19T01:28:16.714Z,573.20
2023-02-19T01:29:16.725Z,586.87
2023-02-19T01:30:16.739Z,574.68
2023-02-19T01:31:16.782Z,575.18
2023-02-19T01:32:16.742Z,568.29
2023-02-19T01:33:16.648Z,573.69
2023-02-19T01:34:16.657Z,578.18
2023-02-19T01:35:16.637Z,582.75
2023-02-19T01:36:16.616Z,585.83
2023-02-19T01:37:16.627Z,590.00
2023-02-19T01:38:16.592Z,584.29
2023-02-19T01:39:16.591Z,576.68
2023-02-19T01:40:16.558Z,575.68
2023-02-19T01:41:16.558Z,574.68
2023-02-19T01:42:16.563Z,571.22
2023-02-19T01:43:16.554Z,571.22
2023-02-19T01:44:16.505Z,571.72
2023-02-19T01:45:16.542Z,574.19
2023-02-19T01:46:16.517Z,566.36
2023-02-19T01:47:16.487Z,563.47
2023-02-19T01:48:16.464Z,566.36
2023-02-19T01:49:16.437Z,555.46
2023-02-19T01:50:16.431Z,549.04
2023-02-19T01:51:16.425Z,543.20
2023-02-19T01:52:16.428Z,543.65
2023-02-19T01:53:16.397Z,546.78
2023-02-19T01:54:16.380Z,555.00
2023-02-19T01:55:16.391Z,560.15
2023-02-19T01:56:16.367Z,565.87
2023-02-19T01:57:16.410Z,565.39
2023-02-19T01:58:16.360Z,564.43
2023-02-19T01:59:16.347Z,570.24
2023-02-19T02:00:16.304Z,571.22
2023-02-19T02:01:16.301Z,567.32
2023-02-19T02:02:16.302Z,572.70
2023-02-19T02:03:16.266Z,571.72
2023-02-19T02:04:16.292Z,569.76
2023-02-19T02:05:16.237Z,574.19
2023-02-19T02:06:16.273Z,573.20
2023-02-19T02:07:16.219Z,573.69
2023-02-19T02:08:16.207Z,566.36
2023-02-19T02:09:16.216Z,568.78
2023-02-19T02:10:16.212Z,557.33
2023-02-19T02:11:16.184Z,551.77
2023-02-19T02:12:16.142Z,549.95
2023-02-19T02:13:16.192Z,537.49
2023-02-19T02:14:16.197Z,537.92
2023-02-19T02:15:16.140Z,548.58
2023-02-19T02:16:16.177Z,528.93
2023-02-19T02:17:16.104Z,521.87
2023-02-19T02:18:16.102Z,516.59
2023-02-19T02:19:16.067Z,503.28
2023-02-19T02:20:16.083Z,487.41
2023-02-19T02:21:16.060Z,492.83
2023-02-19T02:22:16.027Z,483.15
2023-02-19T02:23:16.018Z,472.84
2023-02-19T02:24:16.062Z,458.80
2023-02-19T02:25:16.000Z,453.16
2023-02-19T02:26:15.998Z,449.79
2023-02-19T02:27:15.965Z,438.79
2023-02-19T02:28:15.966Z,423.41
2023-02-19T02:29:15.935Z,411.10
2023-02-19T02:30:15.972Z,407.07
2023-02-19T02:31:16.041Z,394.03
2023-02-19T02:32:16.045Z,378.47
2023-02-19T02:33:15.893Z,363.33
2023-02-19T02:34:15.912Z,359.33
2023-02-19T02:35:15.879Z,353.89
2023-02-19T02:36:15.846Z,348.98
2023-02-19T02:37:15.850Z,348.23
2023-02-19T02:38:15.822Z,340.61
2023-02-19T02:39:15.833Z,328.30
2023-02-19T02:40:15.799Z,319.01
2023-02-19T02:41:15.797Z,304.73
2023-02-19T02:42:15.775Z,296.17
2023-02-19T02:43:15.805Z,288.59
2023-02-19T02:44:15.746Z,280.66
2023-02-19T02:45:15.738Z,277.09
2023-02-19T02:46:15.725Z,276.86
2023-02-19T02:47:15.713Z,272.47
2023-02-19T02:48:15.724Z,271.12
2023-02-19T02:49:15.681Z,271.79
2023-02-19T02:50:15.671Z,271.12
2023-02-19T02:51:15.725Z,261.36
2023-02-19T02:52:15.640Z,258.27
2023-02-19T02:53:15.640Z,250.16
2023-02-19T02:54:15.651Z,239.53
2023-02-19T02:55:15.628Z,225.95
2023-02-19T02:56:15.597Z,213.27
2023-02-19T02:57:15.584Z,200.95
2023-02-19T02:58:15.580Z,197.67
2023-02-19T02:59:15.577Z,192.43
2023-02-19T03:00:15.559Z,184.52
2023-02-19T03:01:15.574Z,173.00
2023-02-19T03:02:15.585Z,166.92
2023-02-19T03:03:15.527Z,159.40
2023-02-19T03:04:15.519Z,148.44
2023-02-19T03:05:15.482Z,137.06
2023-02-19T03:06:15.493Z,131.32
2023-02-19T03:07:15.470Z,126.91
2023-02-19T03:08:15.447Z,125.47
2023-02-19T03:09:15.452Z,121.26
2023-02-19T03:10:15.420Z,118.33
2023-02-19T03:11:15.419Z,116.01
2023-02-19T03:12:15.398Z,114.03
2023-02-19T03:13:15.431Z,113.87
2023-02-19T03:14:15.381Z,112.56
2023-02-19T03:15:15.369Z,111.20
2023-02-19T03:16:15.383Z,105.49
2023-02-19T03:17:15.366Z,100.82
2023-02-19T03:18:15.355Z,95.54
2023-02-19T03:19:15.341Z,89.25
2023-02-19T03:20:15.299Z,81.23
2023-02-19T03:21:15.293Z,75.00
2023-02-19T03:22:15.276Z,70.13
2023-02-19T03:23:15.275Z,66.69
2023-02-19T03:24:15.262Z,62.77
2023-02-19T03:25:15.245Z,58.73
2023-02-19T03:26:15.224Z,54.53
2023-02-19T03:27:15.239Z,50.83
2023-02-19T03:28:15.200Z,47.57
2023-02-19T03:29:15.220Z,45.22
2023-02-19T03:30:15.222Z,42.98
2023-02-19T03:31:15.258Z,41.27
2023-02-19T03:32:15.185Z,39.66
2023-02-19T03:33:15.137Z,38.56
2023-02-19T03:34:15.121Z,37.38
2023-02-19T03:35:15.133Z,36.53
2023-02-19T03:36:15.096Z,36.02
2023-02-19T03:37:15.103Z,35.29
2023-02-19T03:38:15.091Z,34.81
2023-02-19T03:39:15.063Z,34.33
2023-02-19T03:40:15.053Z,33.52
2023-02-19T03:41:15.054Z,33.10
2023-02-19T03:42:15.021Z,32.99
2023-02-19T03:43:15.030Z,32.68
2023-02-19T03:44:14.998Z,32.53
2023-02-19T03:45:15.005Z,32.13
2023-02-19T03:46:14.969Z,32.08
2023-02-19T03:47:14.965Z,32.18
2023-02-19T03:48:14.942Z,31.64
2023-02-19T03:49:14.933Z,31.49
2023-02-19T03:50:14.937Z,31.40
2023-02-19T03:51:14.914Z,31.47
2023-02-19T03:52:14.909Z,31.12
2023-02-19T03:53:14.881Z,31.14
2023-02-19T03:54:14.865Z,30.98
2023-02-19T03:55:14.866Z,31.09
2023-02-19T03:56:14.864Z,31.00
2023-02-19T03:57:14.852Z,30.86
2023-02-19T03:58:14.819Z,30.82
2023-02-19T03:59:14.851Z,30.73
2023-02-19T04:00:14.811Z,30.70
2023-02-19T04:01:14.795Z,30.82
2023-02-19T04:02:14.809Z,30.68
2023-02-19T04:03:14.753Z,30.66
2023-02-19T04:04:14.750Z,30.61
2023-02-19T04:05:14.766Z,30.66
2023-02-19T04:06:14.773Z,30.66
2023-02-19T04:07:14.723Z,30.52
2023-02-19T04:08:14.691Z,30.52
2023-02-19T04:09:14.691Z,30.52
2023-02-19T04:10:14.668Z,30.59
2023-02-19T04:11:14.657Z,30.64
2023-02-19T04:12:14.666Z,30.70
2023-02-19T04:13:14.635Z,30.68
2023-02-19T04:14:14.620Z,30.77
2023-02-19T04:15:14.598Z,30.73
2023-02-19T04:16:14.633Z,30.75
2023-02-19T04:17:14.574Z,30.68
2023-02-19T04:18:14.562Z,30.68
2023-02-19T04:19:14.547Z,30.77
2023-02-19T04:20:14.590Z,30.70
2023-02-19T04:21:14.530Z,30.80
2023-02-19T04:22:14.509Z,30.89
2023-02-19T04:23:14.508Z,30.82
2023-02-19T04:24:14.486Z,30.86
2023-02-19T04:25:14.497Z,30.84
2023-02-19T04:26:14.474Z,30.86
2023-02-19T04:27:14.451Z,31.05
2023-02-19T04:28:14.453Z,30.86
2023-02-19T04:29:14.435Z,30.89
2023-02-19T04:30:14.451Z,31.00
2023-02-19T04:31:14.888Z,30.89
2023-02-19T04:32:14.416Z,31.05
2023-02-19T04:33:14.383Z,31.00
2023-02-19T04:34:14.349Z,31.07
2023-02-19T04:35:14.474Z,31.02
2023-02-19T04:36:14.353Z,31.05
2023-02-19T04:37:14.315Z,31.14
2023-02-19T04:38:14.300Z,31.16
2023-02-19T04:39:14.284Z,31.14
2023-02-19T04:40:14.277Z,31.21
2023-02-19T04:41:14.272Z,31.00
2023-02-19T04:42:14.262Z,31.21
2023-02-19T04:43:14.232Z,31.23
2023-02-19T04:44:14.213Z,31.23
2023-02-19T04:45:14.217Z,31.12
2023-02-19T04:46:14.271Z,31.40
2023-02-19T04:47:14.187Z,31.35
2023-02-19T04:48:14.240Z,31.38
2023-02-19T04:49:14.185Z,31.42
2023-02-19T04:50:14.136Z,31.40
2023-02-19T04:51:14.135Z,31.54
2023-02-19T04:52:14.126Z,31.45
2023-02-19T04:53:14.089Z,31.47
2023-02-19T04:54:14.078Z,31.49
2023-02-19T04:55:14.091Z,31.66
2023-02-19T04:56:14.051Z,31.57
2023-02-19T04:57:14.051Z,31.57
2023-02-19T04:58:14.042Z,31.66
2023-02-19T04:59:14.025Z,31.73
2023-02-19T05:00:13.999Z,31.64
2023-02-19T05:01:14.424Z,31.66
2023-02-19T05:02:14.040Z,31.69
2023-02-19T05:03:13.979Z,31.69
2023-02-19T05:04:14.001Z,31.81
2023-02-19T05:05:13.948Z,31.86
2023-02-19T05:06:13.921Z,31.90
2023-02-19T05:07:13.936Z,31.81
2023-02-19T05:08:13.901Z,31.86
2023-02-19T05:09:13.880Z,32.05
2023-02-19T05:10:13.900Z,32.08
2023-02-19T05:11:13.885Z,31.98
2023-02-19T05:12:13.872Z,31.98
2023-02-19T05:13:13.910Z,32.08
2023-02-19T05:14:13.822Z,32.10
2023-02-19T05:15:13.794Z,32.08
2023-02-19T05:16:13.903Z,32.13
2023-02-19T05:17:14.075Z,32.10
2023-02-19T05:18:13.816Z,32.15
2023-02-19T05:19:13.774Z,32.18
2023-02-19T05:20:13.814Z,32.20
2023-02-19T05:21:13.845Z,32.23
2023-02-19T05:22:13.733Z,32.30
2023-02-19T05:23:13.747Z,32.33
2023-02-19T05:24:13.690Z,32.43
2023-02-19T05:25:13.671Z,32.45
2023-02-19T05:26:13.658Z,32.50
2023-02-19T05:27:13.659Z,32.50
2023-02-19T05:28:13.852Z,32.58
2023-02-19T05:29:13.637Z,32.66
2023-02-19T05:30:13.704Z,32.81
2023-02-19T05:32:59.570Z,38.92
2023-02-19T05:34:00.467Z,37.65
2023-02-19T05:35:00.439Z,36.98
2023-02-19T05:36:00.391Z,36.46
2023-02-19T05:37:00.448Z,36.21
2023-02-19T05:38:00.372Z,35.90
2023-02-19T05:39:00.350Z,35.74
2023-02-19T05:40:00.327Z,35.74
2023-02-19T05:41:00.310Z,35.32
2023-02-19T05:42:00.297Z,35.14
2023-02-19T05:43:00.301Z,35.14
2023-02-19T05:44:00.297Z,35.05
2023-02-19T05:45:00.326Z,34.99
2023-02-19T05:46:00.295Z,34.99
2023-02-19T05:47:00.309Z,35.05
2023-02-19T05:48:00.269Z,35.14
2023-02-19T05:49:00.211Z,35.38
2023-02-19T05:50:00.234Z,35.47
2023-02-19T05:51:00.216Z,35.68
2023-02-19T05:52:00.195Z,35.87
2023-02-19T05:53:00.202Z,36.08
2023-02-19T05:54:00.188Z,36.24
2023-02-19T05:55:00.130Z,36.49
2023-02-19T05:56:00.183Z,36.56
2023-02-19T05:57:08.030Z,36.78
2023-02-19T05:58:00.159Z,37.15
2023-02-19T05:59:00.100Z,37.79
2023-02-19T06:00:00.096Z,38.17
2023-02-19T06:01:13.242Z,38.85
2023-02-19T06:02:00.829Z,39.29
2023-02-19T06:03:00.156Z,39.44
2023-02-19T06:04:00.123Z,39.85
2023-02-19T06:05:00.089Z,40.24
2023-02-19T06:06:00.021Z,40.87
2023-02-19T06:07:12.273Z,41.44
2023-02-19T06:08:00.099Z,41.15
2023-02-19T06:08:59.984Z,41.23
2023-02-19T06:10:00.058Z,41.56
2023-02-19T06:10:59.932Z,41.69
2023-02-19T06:12:00.031Z,41.77
2023-02-19T06:13:00.755Z,42.11
2023-02-19T06:14:00.247Z,42.89
2023-02-19T06:14:59.960Z,43.02
2023-02-19T06:15:59.988Z,42.94
2023-02-19T06:18:13.362Z,46.90
2023-02-19T06:19:14.412Z,48.43
2023-02-19T06:20:14.344Z,49.03
2023-02-19T06:21:14.347Z,49.38
2023-02-19T06:22:14.323Z,50.00
2023-02-19T06:23:14.322Z,51.36
2023-02-19T06:24:14.316Z,52.93
2023-02-19T06:25:14.314Z,56.30
2023-02-19T06:26:14.312Z,58.94
2023-02-19T06:27:14.273Z,60.31
2023-02-19T06:28:14.219Z,60.18
2023-02-19T06:29:14.215Z,59.06
2023-02-19T06:30:14.249Z,57.39
2023-02-19T06:31:14.673Z,57.51
2023-02-19T06:32:14.270Z,57.91
2023-02-19T06:33:14.171Z,58.94
2023-02-19T06:34:14.142Z,60.04
2023-02-19T06:35:14.149Z,62.20
2023-02-19T06:36:14.140Z,64.37
2023-02-19T06:37:14.109Z,64.17
2023-02-19T06:38:14.119Z,63.88
2023-02-19T06:39:14.114Z,64.07
2023-02-19T06:40:14.073Z,63.97
2023-02-19T06:41:14.544Z,65.80
2023-02-19T06:42:14.035Z,66.43
2023-02-19T06:43:14.063Z,66.91
2023-02-19T06:44:14.033Z,66.69
2023-02-19T06:45:14.009Z,66.59
2023-02-19T06:46:14.135Z,68.90
2023-02-19T06:47:13.978Z,73.28
2023-02-19T06:48:13.962Z,76.24
2023-02-19T06:49:13.956Z,76.45
2023-02-19T06:50:13.954Z,78.25
2023-02-19T06:51:13.974Z,78.61
2023-02-19T06:52:13.914Z,79.67
2023-02-19T06:53:13.905Z,77.73
2023-02-19T06:54:13.888Z,77.73
2023-02-19T06:55:13.886Z,80.99
2023-02-19T06:56:13.885Z,82.60
2023-02-19T06:57:13.855Z,84.19
2023-02-19T06:58:13.834Z,87.74
2023-02-19T06:59:13.826Z,87.01
2023-02-19T07:00:13.832Z,86.38
2023-02-19T07:01:14.037Z,89.54
2023-02-19T07:02:13.812Z,91.21
2023-02-19T07:03:13.807Z,91.01
2023-02-19T07:04:13.840Z,92.32
2023-02-19T07:05:13.762Z,93.78
2023-02-19T07:06:13.762Z,93.89
2023-02-19T07:07:13.726Z,93.99
2023-02-19T07:08:13.989Z,92.32
2023-02-19T07:09:13.698Z,95.18
2023-02-19T07:10:13.673Z,95.73
2023-02-19T07:11:13.672Z,94.10
2023-02-19T07:12:13.664Z,95.95
2023-02-19T07:13:13.639Z,95.60
2023-02-19T07:14:13.628Z,95.40
2023-02-19T07:15:13.642Z,94.19
2023-02-19T07:16:13.687Z,97.05
2023-02-19T07:17:13.614Z,98.90
2023-02-19T07:18:13.572Z,99.73
2023-02-19T07:19:13.594Z,101.43
2023-02-19T07:20:13.560Z,100.51
2023-02-19T07:21:13.796Z,98.49
2023-02-19T07:22:13.536Z,98.55
2023-02-19T07:23:13.572Z,98.26
2023-02-19T07:24:13.500Z,97.85
2023-02-19T07:25:13.548Z,98.43
2023-02-19T07:26:13.500Z,95.65
2023-02-19T07:27:13.503Z,93.78
2023-02-19T07:28:13.473Z,89.25
2023-02-19T07:29:13.446Z,85.31
2023-02-19T07:30:13.479Z,80.21
2023-02-19T07:31:13.919Z,79.21
2023-02-19T07:32:13.409Z,74.86
2023-02-19T07:33:13.391Z,73.60
2023-02-19T07:34:13.419Z,72.01
2023-02-19T07:35:13.386Z,70.54
2023-02-19T07:36:13.350Z,68.56
2023-02-19T07:37:13.352Z,67.02
2023-02-19T07:38:13.355Z,65.33
2023-02-19T07:39:13.333Z,64.72
2023-02-19T07:40:13.293Z,64.17
2023-02-19T07:41:13.648Z,64.02
2023-02-19T07:42:13.269Z,62.67
2023-02-19T07:43:13.282Z,60.93
2023-02-19T07:44:13.259Z,59.44
2023-02-19T07:45:13.268Z,58.36
2023-02-19T07:46:13.245Z,58.52
2023-02-19T07:47:13.239Z,57.79
2023-02-19T07:48:13.233Z,56.61
2023-02-19T07:49:13.202Z,56.73
2023-02-19T07:50:14.076Z,56.88
2023-02-19T07:51:13.520Z,56.30
2023-02-19T07:52:13.360Z,56.19
2023-02-19T07:53:13.140Z,56.49
2023-02-19T07:54:13.116Z,56.84
2023-02-19T07:55:13.143Z,56.88
2023-02-19T07:56:13.098Z,56.84
2023-02-19T07:57:13.141Z,55.66
2023-02-19T07:58:13.116Z,55.18
2023-02-19T07:59:13.098Z,53.72
2023-02-19T08:00:13.042Z,53.48
2023-02-19T08:01:13.458Z,53.55
2023-02-19T08:02:13.045Z,52.73
2023-02-19T08:03:13.051Z,52.93
2023-02-19T08:04:13.013Z,52.24
2023-02-19T08:05:12.996Z,52.87
2023-02-19T08:06:12.970Z,53.93
2023-02-19T08:07:12.979Z,54.17
2023-02-19T08:08:12.962Z,55.55
2023-02-19T08:09:12.959Z,56.26
2023-02-19T08:10:12.923Z,55.81
2023-02-19T08:11:13.194Z,56.00
2023-02-19T08:12:12.888Z,55.00
2023-02-19T08:13:12.878Z,54.03
2023-02-19T08:14:12.879Z,52.93
2023-02-19T08:15:13.187Z,52.70
2023-02-19T08:16:20.003Z,52.76
2023-02-19T08:17:12.899Z,52.56
2023-02-19T08:18:12.813Z,52.10
2023-02-19T08:19:12.814Z,51.68
2023-02-19T08:20:12.794Z,52.10
2023-02-19T08:21:12.790Z,51.68
2023-02-19T08:22:12.803Z,51.52
2023-02-19T08:23:12.838Z,50.77
2023-02-19T08:24:12.780Z,51.24
2023-02-19T08:25:12.732Z,50.43
2023-02-19T08:26:12.712Z,48.32
2023-02-19T08:27:12.746Z,47.01
2023-02-19T08:28:12.741Z,46.54
2023-02-19T08:29:12.682Z,45.22
2023-02-19T08:30:12.762Z,44.50
2023-02-19T08:31:13.097Z,43.43
2023-02-19T08:32:12.665Z,41.85
2023-02-19T08:33:12.629Z,41.35
2023-02-19T08:34:12.618Z,41.15
2023-02-19T08:35:12.615Z,41.23
2023-02-19T08:36:12.587Z,40.99
2023-02-19T08:37:12.586Z,40.95
2023-02-19T08:38:12.591Z,40.99
2023-02-19T08:39:12.554Z,40.59
2023-02-19T08:40:12.557Z,41.19
2023-02-19T08:41:12.898Z,40.95
2023-02-19T08:42:12.532Z,40.67
2023-02-19T08:43:12.493Z,40.35
2023-02-19T08:44:12.508Z,40.63
2023-02-19T08:45:12.470Z,42.24
2023-02-19T08:46:12.493Z,43.56
2023-02-19T08:47:12.463Z,43.75
2023-02-19T08:48:12.421Z,44.35
2023-02-19T08:49:12.425Z,44.74
2023-02-19T08:50:12.450Z,44.45
2023-02-19T08:51:12.815Z,45.07
2023-02-19T08:52:12.408Z,46.02
2023-02-19T08:53:12.367Z,46.90
2023-02-19T08:54:12.354Z,45.77
2023-02-19T08:55:12.344Z,46.75
2023-02-19T08:56:12.365Z,47.01
2023-02-19T08:57:12.342Z,47.12
2023-02-19T08:58:12.301Z,47.22
2023-02-19T08:59:12.333Z,46.85
2023-02-19T09:00:12.285Z,46.59
2023-02-19T09:01:12.764Z,46.80
2023-02-19T09:02:12.277Z,46.87
2023-02-19T09:03:12.247Z,47.82
2023-02-19T09:04:12.272Z,48.66
2023-02-19T09:05:12.212Z,49.32
2023-02-19T09:06:12.482Z,49.59
2023-02-19T09:07:12.206Z,50.03
2023-02-19T09:08:12.198Z,49.71
2023-02-19T09:09:12.155Z,49.03
2023-02-19T09:10:12.147Z,48.77
2023-02-19T09:11:12.504Z,48.18
2023-02-19T09:12:12.135Z,47.60
2023-02-19T09:13:12.114Z,47.41
2023-02-19T09:14:12.095Z,46.95
2023-02-19T09:15:12.082Z,46.90
2023-02-19T09:16:12.101Z,47.27
2023-02-19T09:17:12.054Z,47.11
2023-02-19T09:18:12.061Z,47.25
2023-02-19T09:19:12.032Z,48.35
2023-02-19T09:20:12.042Z,50.09
2023-02-19T09:21:12.446Z,51.75
2023-02-19T09:22:12.002Z,53.58
2023-02-19T09:23:11.995Z,54.57
2023-02-19T09:24:11.994Z,56.53
2023-02-19T09:25:11.977Z,57.47
2023-02-19T09:26:11.960Z,59.53
2023-02-19T09:27:11.937Z,62.16
2023-02-19T09:28:11.925Z,66.37
2023-02-19T09:29:11.906Z,69.66
2023-02-19T09:30:11.930Z,74.73
2023-02-19T09:31:12.294Z,84.96
2023-02-19T09:32:11.964Z,90.32
2023-02-19T09:33:11.851Z,94.14
2023-02-19T09:34:11.865Z,99.61
2023-02-19T09:35:11.846Z,107.12
2023-02-19T09:36:11.836Z,108.52
2023-02-19T09:37:11.807Z,109.52
2023-02-19T09:38:11.800Z,107.47
2023-02-19T09:39:11.783Z,109.16
2023-02-19T09:40:11.768Z,111.50
2023-02-19T09:41:12.093Z,116.75
2023-02-19T09:42:11.750Z,120.56
2023-02-19T09:43:11.744Z,128.48
2023-02-19T09:44:11.738Z,133.00
2023-02-19T09:45:11.711Z,138.89
2023-02-19T09:46:11.755Z,146.35
2023-02-19T09:47:11.683Z,157.14
2023-02-19T09:48:11.664Z,160.94
2023-02-19T09:49:11.749Z,170.34
2023-02-19T09:50:11.648Z,174.45
2023-02-19T09:51:11.921Z,176.49
2023-02-19T09:52:11.631Z,175.93
2023-02-19T09:53:11.602Z,178.57
2023-02-19T09:54:11.634Z,183.50
2023-02-19T09:55:11.580Z,188.77
2023-02-19T09:56:11.571Z,194.15
2023-02-19T09:57:11.585Z,202.19
2023-02-19T09:58:11.620Z,218.55
2023-02-19T09:59:11.525Z,232.38
2023-02-19T10:00:11.523Z,241.12
2023-02-19T10:01:11.997Z,247.32
2023-02-19T10:02:11.539Z,256.04
2023-02-19T10:03:11.467Z,263.89
2023-02-19T10:04:11.458Z,273.39
2023-02-19T10:05:11.513Z,282.85
2023-02-19T10:06:11.588Z,286.82
2023-02-19T10:07:11.455Z,280.90
2023-02-19T10:08:11.430Z,284.57
2023-02-19T10:09:11.415Z,286.32
2023-02-19T10:10:11.392Z,280.66
2023-02-19T10:11:11.685Z,280.18
2023-02-19T10:12:11.357Z,286.57
2023-02-19T10:13:11.360Z,287.32
2023-02-19T10:14:11.349Z,283.83
2023-02-19T10:15:11.325Z,283.34
2023-02-19T10:16:11.366Z,276.62
2023-02-19T10:17:11.295Z,278.98
2023-02-19T10:18:11.402Z,293.25
2023-02-19T10:19:11.286Z,294.84
2023-02-19T10:20:11.271Z,311.11
2023-02-19T10:21:11.761Z,326.33
2023-02-19T10:22:11.253Z,331.29
2023-02-19T10:23:11.247Z,342.76
2023-02-19T10:24:11.218Z,358.55
2023-02-19T10:25:11.190Z,373.71
2023-02-19T10:26:11.189Z,374.57
2023-02-19T10:27:11.198Z,388.73
2023-02-19T10:28:11.176Z,411.35
2023-02-19T10:29:11.144Z,426.68
2023-02-19T10:30:11.166Z,438.51
2023-02-19T10:31:11.414Z,447.36
2023-02-19T10:32:11.141Z,465.55
2023-02-19T10:33:11.126Z,472.16
2023-02-19T10:34:11.087Z,478.28
2023-02-19T10:35:11.068Z,474.52
2023-02-19T10:36:11.063Z,474.86
2023-02-19T10:37:11.041Z,472.84
2023-02-19T10:38:11.037Z,474.52
2023-02-19T10:39:11.026Z,475.20
2023-02-19T10:40:11.010Z,466.20
2023-02-19T10:41:11.263Z,455.02
2023-02-19T10:42:10.983Z,468.17
2023-02-19T10:43:10.974Z,491.74
2023-02-19T10:44:10.980Z,491.74
2023-02-19T10:45:10.946Z,497.26
2023-02-19T10:46:10.934Z,507.51
2023-02-19T10:47:10.928Z,521.05
2023-02-19T10:48:10.910Z,526.00
2023-02-19T10:49:10.894Z,532.75
2023-02-19T10:50:10.910Z,543.20
2023-02-19T10:51:11.214Z,534.46
2023-02-19T10:52:10.850Z,543.20
2023-02-19T10:53:10.852Z,545.88
2023-02-19T10:54:10.843Z,570.73
2023-02-19T10:55:10.817Z,582.24
2023-02-19T10:56:10.829Z,591.04
2023-02-19T10:57:10.818Z,610.04
2023-02-19T10:58:10.790Z,628.51
2023-02-19T10:59:10.784Z,665.67
2023-02-19T11:00:10.773Z,682.07
2023-02-19T11:01:11.092Z,709.00
2023-02-19T11:02:10.725Z,722.10
2023-02-19T11:03:10.727Z,733.26
2023-02-19T11:04:10.746Z,745.61
2023-02-19T11:05:10.690Z,739.79
2023-02-19T11:06:10.688Z,737.33
2023-02-19T11:07:10.683Z,738.97
2023-02-19T11:08:10.680Z,751.41
2023-02-19T11:09:10.643Z,740.62
2023-02-19T11:10:10.648Z,726.84
2023-02-19T11:11:10.851Z,751.84
2023-02-19T11:12:10.622Z,765.25
2023-02-19T11:13:10.621Z,775.06
2023-02-19T11:14:10.606Z,753.11
2023-02-19T11:15:10.588Z,718.98
2023-02-19T11:16:10.580Z,739.79
2023-02-19T11:17:10.564Z,747.61
2023-02-19T11:18:10.584Z,735.70
2023-02-19T11:19:10.539Z,751.84
2023-02-19T11:20:10.528Z,767.46
2023-02-19T11:21:10.793Z,762.18
2023-02-19T11:22:10.505Z,756.11
2023-02-19T11:23:10.474Z,750.56
2023-02-19T11:24:10.457Z,751.84
2023-02-19T11:25:10.459Z,731.65
2023-02-19T11:26:10.444Z,692.74
2023-02-19T11:27:10.419Z,717.42
2023-02-19T11:28:10.415Z,715.11
2023-02-19T11:29:10.432Z,743.10
2023-02-19T11:30:10.411Z,721.32
2023-02-19T11:31:11.150Z,700.78
2023-02-19T11:32:10.435Z,689.86
2023-02-19T11:33:10.369Z,684.18
2023-02-19T11:34:10.332Z,661.69
2023-02-19T11:35:10.353Z,671.05
2023-02-19T11:36:10.330Z,681.37
2023-02-19T11:37:10.297Z,693.46
2023-02-19T11:38:10.309Z,708.25
2023-02-19T11:39:10.308Z,697.10
2023-02-19T11:40:10.281Z,692.02
2023-02-19T11:41:10.906Z,680.67
2023-02-19T11:42:10.243Z,682.77
2023-02-19T11:43:10.266Z,697.10
2023-02-19T11:44:10.213Z,683.47
2023-02-19T11:45:10.235Z,666.33
2023-02-19T11:46:10.203Z,662.35
2023-02-19T11:47:10.182Z,648.13
2023-02-19T11:48:10.167Z,651.95
2023-02-19T11:49:10.179Z,653.23
2023-02-19T11:50:10.175Z,643.11
2023-02-19T11:51:10.458Z,640.63
2023-02-19T11:52:10.116Z,644.36
2023-02-19T11:53:10.135Z,646.87
2023-02-19T11:54:10.096Z,641.25
2023-02-19T11:55:10.099Z,626.73
2023-02-19T11:56:10.083Z,628.51
2023-02-19T11:57:10.055Z,632.10
2023-02-19T11:58:10.066Z,612.29
2023-02-19T11:59:10.025Z,614.56
2023-02-19T12:00:10.035Z,620.87
2023-02-19T12:01:10.395Z,613.99
2023-02-19T12:02:10.074Z,620.29
2023-02-19T12:03:09.980Z,611.73
2023-02-19T12:04:09.971Z,629.10
2023-02-19T12:05:10.001Z,643.74
2023-02-19T12:06:10.431Z,661.03
2023-02-19T12:07:09.939Z,692.02
2023-02-19T12:08:09.928Z,711.28
2023-02-19T12:09:09.931Z,709.00
2023-02-19T12:10:09.901Z,696.37
2023-02-19T12:11:09.893Z,701.52
2023-02-19T12:12:09.904Z,706.74
2023-02-19T12:13:09.859Z,718.20
2023-02-19T12:14:09.850Z,739.79
2023-02-19T12:15:09.841Z,732.45
2023-02-19T12:16:09.921Z,741.45
2023-02-19T12:17:09.806Z,763.05
2023-02-19T12:18:09.798Z,770.57
2023-02-19T12:19:09.815Z,785.59
2023-02-19T12:20:09.801Z,794.98
2023-02-19T12:21:10.046Z,794.98
2023-02-19T12:22:09.750Z,802.17
2023-02-19T12:23:09.730Z,786.52
2023-02-19T12:24:09.751Z,790.72
2023-02-19T12:25:09.724Z,784.66
2023-02-19T12:26:10.101Z,777.78
2023-02-19T12:27:09.708Z,761.30
2023-02-19T12:28:09.672Z,782.35
2023-02-19T12:29:09.660Z,759.13
2023-02-19T12:30:09.669Z,763.05
2023-02-19T12:31:09.717Z,782.81
2023-02-19T12:32:09.758Z,802.66
2023-02-19T12:33:09.641Z,839.65
2023-02-19T12:34:09.615Z,825.57
2023-02-19T12:35:09.600Z,825.57
2023-02-19T12:36:09.872Z,824.04
2023-02-19T12:37:09.564Z,821.49
2023-02-19T12:38:09.573Z,800.72
2023-02-19T12:39:09.554Z,794.98
2023-02-19T12:40:09.516Z,801.20
2023-02-19T12:41:09.515Z,801.20
2023-02-19T12:42:09.513Z,806.55
2023-02-19T12:43:09.485Z,794.03